sensor_id;sensor_type;location;lat;lon;timestamp;P1;durP1;ratioP1;P2;durP2;ratioP2
46116;SDS011;32591;48.102;11.772;2023-06-22T00:01:32;7.22;;;3.40;;
46116;SDS011;32591;48.102;11.772;2023-06-22T00:04:00;7.88;;;3.13;;
46116;SDS011;32591;48.102;11.772;2023-06-22T00:06:27;7.22;;;2.95;;
46116;SDS011;32591;48.102;11.772;2023-06-22T00:08:55;8.38;;;4.20;;
46116;SDS011;32591;48.102;11.772;2023-06-22T00:11:22;6.93;;;2.85;;
46116;SDS011;32591;48.102;11.772;2023-06-22T00:13:49;8.18;;;3.45;;
46116;SDS011;32591;48.102;11.772;2023-06-22T00:16:16;5.18;;;2.92;;
46116;SDS011;32591;48.102;11.772;2023-06-22T00:18:43;7.22;;;3.03;;
46116;SDS011;32591;48.102;11.772;2023-06-22T00:21:12;7.95;;;3.85;;
46116;SDS011;32591;48.102;11.772;2023-06-22T00:23:39;6.85;;;3.50;;
46116;SDS011;32591;48.102;11.772;2023-06-22T00:26:07;8.10;;;3.13;;
46116;SDS011;32591;48.102;11.772;2023-06-22T00:28:35;7.50;;;3.55;;
46116;SDS011;32591;48.102;11.772;2023-06-22T00:31:02;9.07;;;3.00;;
46116;SDS011;32591;48.102;11.772;2023-06-22T00:33:29;7.88;;;3.20;;
46116;SDS011;32591;48.102;11.772;2023-06-22T00:35:56;6.25;;;3.15;;
46116;SDS011;32591;48.102;11.772;2023-06-22T00:38:23;6.93;;;3.30;;
46116;SDS011;32591;48.102;11.772;2023-06-22T00:40:50;7.05;;;3.10;;
46116;SDS011;32591;48.102;11.772;2023-06-22T00:43:19;10.35;;;3.88;;
46116;SDS011;32591;48.102;11.772;2023-06-22T00:45:46;6.28;;;3.08;;
46116;SDS011;32591;48.102;11.772;2023-06-22T00:48:13;8.18;;;3.78;;
46116;SDS011;32591;48.102;11.772;2023-06-22T00:50:41;6.97;;;3.30;;
46116;SDS011;32591;48.102;11.772;2023-06-22T00:53:09;4.47;;;2.83;;
46116;SDS011;32591;48.102;11.772;2023-06-22T00:55:37;5.00;;;2.92;;
46116;SDS011;32591;48.102;11.772;2023-06-22T00:58:08;7.72;;;3.17;;
46116;SDS011;32591;48.102;11.772;2023-06-22T01:00:37;9.27;;;3.22;;
46116;SDS011;32591;48.102;11.772;2023-06-22T01:03:05;7.10;;;3.40;;
46116;SDS011;32591;48.102;11.772;2023-06-22T01:05:34;8.40;;;3.38;;
46116;SDS011;32591;48.102;11.772;2023-06-22T01:08:07;7.45;;;3.45;;
46116;SDS011;32591;48.102;11.772;2023-06-22T01:10:47;7.55;;;3.25;;
46116;SDS011;32591;48.102;11.772;2023-06-22T01:13:22;7.95;;;2.88;;
46116;SDS011;32591;48.102;11.772;2023-06-22T01:15:59;5.35;;;3.38;;
46116;SDS011;32591;48.102;11.772;2023-06-22T01:18:30;8.10;;;2.92;;
46116;SDS011;32591;48.102;11.772;2023-06-22T01:21:01;6.95;;;3.17;;
46116;SDS011;32591;48.102;11.772;2023-06-22T01:23:36;6.47;;;3.53;;
46116;SDS011;32591;48.102;11.772;2023-06-22T01:26:17;8.30;;;4.55;;
46116;SDS011;32591;48.102;11.772;2023-06-22T01:28:54;8.50;;;3.70;;
46116;SDS011;32591;48.102;11.772;2023-06-22T01:31:24;5.60;;;2.80;;
46116;SDS011;32591;48.102;11.772;2023-06-22T01:33:55;8.40;;;3.65;;
46116;SDS011;32591;48.102;11.772;2023-06-22T01:36:26;9.48;;;4.93;;
46116;SDS011;32591;48.102;11.772;2023-06-22T01:38:54;7.85;;;4.22;;
46116;SDS011;32591;48.102;11.772;2023-06-22T01:41:25;9.38;;;3.90;;
46116;SDS011;32591;48.102;11.772;2023-06-22T01:43:56;8.15;;;3.90;;
46116;SDS011;32591;48.102;11.772;2023-06-22T01:46:23;6.85;;;3.90;;
46116;SDS011;32591;48.102;11.772;2023-06-22T01:48:50;10.52;;;4.38;;
46116;SDS011;32591;48.102;11.772;2023-06-22T01:51:18;10.40;;;5.20;;
46116;SDS011;32591;48.102;11.772;2023-06-22T01:53:46;9.60;;;4.80;;
46116;SDS011;32591;48.102;11.772;2023-06-22T01:56:13;9.70;;;5.00;;
46116;SDS011;32591;48.102;11.772;2023-06-22T01:58:45;8.88;;;4.28;;
46116;SDS011;32591;48.102;11.772;2023-06-22T02:01:20;8.40;;;4.80;;
46116;SDS011;32591;48.102;11.772;2023-06-22T02:03:53;13.05;;;5.03;;
46116;SDS011;32591;48.102;11.772;2023-06-22T02:06:30;9.50;;;5.25;;
46116;SDS011;32591;48.102;11.772;2023-06-22T02:09:04;7.45;;;4.95;;
46116;SDS011;32591;48.102;11.772;2023-06-22T02:11:35;7.32;;;4.63;;
46116;SDS011;32591;48.102;11.772;2023-06-22T02:14:05;11.98;;;5.32;;
46116;SDS011;32591;48.102;11.772;2023-06-22T02:16:34;7.90;;;4.93;;
46116;SDS011;32591;48.102;11.772;2023-06-22T02:19:03;8.60;;;5.03;;
46116;SDS011;32591;48.102;11.772;2023-06-22T02:21:31;11.38;;;4.78;;
46116;SDS011;32591;48.102;11.772;2023-06-22T02:23:59;9.73;;;5.05;;
46116;SDS011;32591;48.102;11.772;2023-06-22T02:26:26;7.00;;;4.75;;
46116;SDS011;32591;48.102;11.772;2023-06-22T02:28:53;10.18;;;5.07;;
46116;SDS011;32591;48.102;11.772;2023-06-22T02:31:21;10.07;;;5.15;;
46116;SDS011;32591;48.102;11.772;2023-06-22T02:33:49;9.18;;;6.00;;
46116;SDS011;32591;48.102;11.772;2023-06-22T02:36:16;12.55;;;5.10;;
46116;SDS011;32591;48.102;11.772;2023-06-22T02:38:47;11.32;;;4.72;;
46116;SDS011;32591;48.102;11.772;2023-06-22T02:41:14;12.05;;;4.75;;
46116;SDS011;32591;48.102;11.772;2023-06-22T02:43:44;12.63;;;4.95;;
46116;SDS011;32591;48.102;11.772;2023-06-22T02:46:11;7.88;;;4.75;;
46116;SDS011;32591;48.102;11.772;2023-06-22T02:48:39;11.50;;;6.13;;
46116;SDS011;32591;48.102;11.772;2023-06-22T02:51:08;9.43;;;5.50;;
46116;SDS011;32591;48.102;11.772;2023-06-22T02:53:35;8.65;;;5.50;;
46116;SDS011;32591;48.102;11.772;2023-06-22T02:56:02;11.75;;;5.82;;
46116;SDS011;32591;48.102;11.772;2023-06-22T02:58:30;12.52;;;5.95;;
46116;SDS011;32591;48.102;11.772;2023-06-22T03:01:03;13.20;;;6.40;;
46116;SDS011;32591;48.102;11.772;2023-06-22T03:03:31;11.38;;;5.45;;
46116;SDS011;32591;48.102;11.772;2023-06-22T03:05:58;11.73;;;6.47;;
46116;SDS011;32591;48.102;11.772;2023-06-22T03:08:27;10.43;;;5.93;;
46116;SDS011;32591;48.102;11.772;2023-06-22T03:10:54;9.57;;;5.65;;
46116;SDS011;32591;48.102;11.772;2023-06-22T03:13:22;12.82;;;5.32;;
46116;SDS011;32591;48.102;11.772;2023-06-22T03:15:49;9.48;;;5.43;;
46116;SDS011;32591;48.102;11.772;2023-06-22T03:18:17;9.57;;;5.30;;
46116;SDS011;32591;48.102;11.772;2023-06-22T03:20:44;11.63;;;5.60;;
46116;SDS011;32591;48.102;11.772;2023-06-22T03:23:11;8.23;;;5.45;;
46116;SDS011;32591;48.102;11.772;2023-06-22T03:25:40;10.63;;;5.45;;
46116;SDS011;32591;48.102;11.772;2023-06-22T03:28:09;11.70;;;6.15;;
46116;SDS011;32591;48.102;11.772;2023-06-22T03:30:36;11.73;;;5.65;;
46116;SDS011;32591;48.102;11.772;2023-06-22T03:33:03;8.40;;;5.35;;
46116;SDS011;32591;48.102;11.772;2023-06-22T03:35:30;9.85;;;5.20;;
46116;SDS011;32591;48.102;11.772;2023-06-22T03:37:57;9.15;;;4.72;;
46116;SDS011;32591;48.102;11.772;2023-06-22T03:40:24;10.98;;;5.60;;
46116;SDS011;32591;48.102;11.772;2023-06-22T03:42:52;8.88;;;5.68;;
46116;SDS011;32591;48.102;11.772;2023-06-22T03:45:19;12.82;;;6.45;;
46116;SDS011;32591;48.102;11.772;2023-06-22T03:47:47;12.63;;;5.70;;
46116;SDS011;32591;48.102;11.772;2023-06-22T03:50:14;10.45;;;5.90;;
46116;SDS011;32591;48.102;11.772;2023-06-22T03:52:41;12.27;;;6.38;;
46116;SDS011;32591;48.102;11.772;2023-06-22T03:55:08;9.73;;;5.68;;
46116;SDS011;32591;48.102;11.772;2023-06-22T03:57:35;8.65;;;5.28;;
46116;SDS011;32591;48.102;11.772;2023-06-22T04:00:03;9.77;;;5.47;;
46116;SDS011;32591;48.102;11.772;2023-06-22T04:02:33;10.02;;;5.75;;
46116;SDS011;32591;48.102;11.772;2023-06-22T04:05:00;10.82;;;5.53;;
46116;SDS011;32591;48.102;11.772;2023-06-22T04:07:27;11.02;;;5.75;;
46116;SDS011;32591;48.102;11.772;2023-06-22T04:09:53;13.45;;;6.45;;
46116;SDS011;32591;48.102;11.772;2023-06-22T04:12:20;10.07;;;6.03;;
46116;SDS011;32591;48.102;11.772;2023-06-22T04:14:47;9.30;;;5.72;;
46116;SDS011;32591;48.102;11.772;2023-06-22T04:17:16;11.55;;;5.93;;
46116;SDS011;32591;48.102;11.772;2023-06-22T04:19:45;10.27;;;6.18;;
46116;SDS011;32591;48.102;11.772;2023-06-22T04:22:12;9.73;;;6.13;;
46116;SDS011;32591;48.102;11.772;2023-06-22T04:24:39;11.80;;;6.10;;
46116;SDS011;32591;48.102;11.772;2023-06-22T04:27:06;8.82;;;5.53;;
46116;SDS011;32591;48.102;11.772;2023-06-22T04:29:33;9.80;;;5.68;;
46116;SDS011;32591;48.102;11.772;2023-06-22T04:32:00;10.43;;;5.97;;
46116;SDS011;32591;48.102;11.772;2023-06-22T04:34:31;12.65;;;5.70;;
46116;SDS011;32591;48.102;11.772;2023-06-22T04:36:58;10.70;;;5.88;;
46116;SDS011;32591;48.102;11.772;2023-06-22T04:39:25;11.82;;;6.20;;
46116;SDS011;32591;48.102;11.772;2023-06-22T04:41:52;17.17;;;6.70;;
46116;SDS011;32591;48.102;11.772;2023-06-22T04:44:25;11.00;;;5.93;;
46116;SDS011;32591;48.102;11.772;2023-06-22T04:46:53;13.30;;;6.20;;
46116;SDS011;32591;48.102;11.772;2023-06-22T04:49:25;9.35;;;5.30;;
46116;SDS011;32591;48.102;11.772;2023-06-22T04:51:59;13.95;;;6.47;;
46116;SDS011;32591;48.102;11.772;2023-06-22T04:54:26;11.13;;;5.65;;
46116;SDS011;32591;48.102;11.772;2023-06-22T04:56:53;7.60;;;5.03;;
46116;SDS011;32591;48.102;11.772;2023-06-22T04:59:22;10.10;;;5.50;;
46116;SDS011;32591;48.102;11.772;2023-06-22T05:01:53;13.13;;;6.15;;
46116;SDS011;32591;48.102;11.772;2023-06-22T05:04:21;12.95;;;6.80;;
46116;SDS011;32591;48.102;11.772;2023-06-22T05:06:49;9.27;;;5.05;;
46116;SDS011;32591;48.102;11.772;2023-06-22T05:09:18;13.13;;;5.55;;
46116;SDS011;32591;48.102;11.772;2023-06-22T05:11:45;14.25;;;6.68;;
46116;SDS011;32591;48.102;11.772;2023-06-22T05:14:12;9.80;;;6.00;;
46116;SDS011;32591;48.102;11.772;2023-06-22T05:16:40;11.85;;;6.00;;
46116;SDS011;32591;48.102;11.772;2023-06-22T05:19:08;7.88;;;4.88;;
46116;SDS011;32591;48.102;11.772;2023-06-22T05:21:35;12.30;;;5.75;;
46116;SDS011;32591;48.102;11.772;2023-06-22T05:24:03;10.65;;;6.38;;
46116;SDS011;32591;48.102;11.772;2023-06-22T05:26:33;12.68;;;5.93;;
46116;SDS011;32591;48.102;11.772;2023-06-22T05:29:01;10.52;;;5.60;;
46116;SDS011;32591;48.102;11.772;2023-06-22T05:31:29;9.35;;;5.55;;
46116;SDS011;32591;48.102;11.772;2023-06-22T05:33:56;9.95;;;5.47;;
46116;SDS011;32591;48.102;11.772;2023-06-22T05:36:23;9.68;;;5.55;;
46116;SDS011;32591;48.102;11.772;2023-06-22T05:38:51;9.52;;;5.35;;
46116;SDS011;32591;48.102;11.772;2023-06-22T05:41:18;13.65;;;5.50;;
46116;SDS011;32591;48.102;11.772;2023-06-22T05:43:47;9.68;;;5.60;;
46116;SDS011;32591;48.102;11.772;2023-06-22T05:46:13;7.72;;;5.60;;
46116;SDS011;32591;48.102;11.772;2023-06-22T05:48:41;12.70;;;5.90;;
46116;SDS011;32591;48.102;11.772;2023-06-22T05:51:07;12.90;;;6.18;;
46116;SDS011;32591;48.102;11.772;2023-06-22T05:53:34;10.90;;;5.68;;
46116;SDS011;32591;48.102;11.772;2023-06-22T05:56:01;10.82;;;6.25;;
46116;SDS011;32591;48.102;11.772;2023-06-22T05:58:29;12.98;;;6.22;;
46116;SDS011;32591;48.102;11.772;2023-06-22T06:00:57;14.45;;;7.13;;
46116;SDS011;32591;48.102;11.772;2023-06-22T06:03:25;9.45;;;5.72;;
46116;SDS011;32591;48.102;11.772;2023-06-22T06:05:53;11.10;;;6.88;;
46116;SDS011;32591;48.102;11.772;2023-06-22T06:08:20;10.00;;;6.97;;
46116;SDS011;32591;48.102;11.772;2023-06-22T06:10:48;10.38;;;6.55;;
46116;SDS011;32591;48.102;11.772;2023-06-22T06:13:15;10.00;;;6.18;;
46116;SDS011;32591;48.102;11.772;2023-06-22T06:15:41;11.90;;;5.93;;
46116;SDS011;32591;48.102;11.772;2023-06-22T06:18:10;14.10;;;6.57;;
46116;SDS011;32591;48.102;11.772;2023-06-22T06:20:37;12.57;;;6.43;;
46116;SDS011;32591;48.102;11.772;2023-06-22T06:23:04;14.32;;;6.47;;
46116;SDS011;32591;48.102;11.772;2023-06-22T06:25:30;15.45;;;6.32;;
46116;SDS011;32591;48.102;11.772;2023-06-22T06:27:57;12.63;;;6.95;;
46116;SDS011;32591;48.102;11.772;2023-06-22T06:30:24;11.70;;;6.75;;
46116;SDS011;32591;48.102;11.772;2023-06-22T06:32:52;11.98;;;5.85;;
46116;SDS011;32591;48.102;11.772;2023-06-22T06:35:20;11.13;;;6.65;;
46116;SDS011;32591;48.102;11.772;2023-06-22T06:37:48;12.38;;;6.07;;
46116;SDS011;32591;48.102;11.772;2023-06-22T06:40:17;12.02;;;7.10;;
46116;SDS011;32591;48.102;11.772;2023-06-22T06:42:46;11.35;;;6.57;;
46116;SDS011;32591;48.102;11.772;2023-06-22T06:45:15;12.90;;;6.90;;
46116;SDS011;32591;48.102;11.772;2023-06-22T06:47:44;11.63;;;6.85;;
46116;SDS011;32591;48.102;11.772;2023-06-22T06:50:12;11.25;;;7.15;;
46116;SDS011;32591;48.102;11.772;2023-06-22T06:52:40;16.13;;;7.90;;
46116;SDS011;32591;48.102;11.772;2023-06-22T06:55:08;15.82;;;7.13;;
46116;SDS011;32591;48.102;11.772;2023-06-22T06:57:37;11.20;;;7.72;;
46116;SDS011;32591;48.102;11.772;2023-06-22T07:00:05;10.65;;;7.00;;
46116;SDS011;32591;48.102;11.772;2023-06-22T07:02:37;14.43;;;7.00;;
46116;SDS011;32591;48.102;11.772;2023-06-22T07:05:05;9.05;;;6.30;;
46116;SDS011;32591;48.102;11.772;2023-06-22T07:07:33;15.60;;;6.95;;
46116;SDS011;32591;48.102;11.772;2023-06-22T07:10:01;15.15;;;6.85;;
46116;SDS011;32591;48.102;11.772;2023-06-22T07:12:30;14.07;;;7.75;;
46116;SDS011;32591;48.102;11.772;2023-06-22T07:15:00;17.25;;;6.53;;
46116;SDS011;32591;48.102;11.772;2023-06-22T07:17:29;12.40;;;6.85;;
46116;SDS011;32591;48.102;11.772;2023-06-22T07:19:56;10.57;;;6.25;;
46116;SDS011;32591;48.102;11.772;2023-06-22T07:22:23;11.55;;;6.53;;
46116;SDS011;32591;48.102;11.772;2023-06-22T07:24:50;14.82;;;6.60;;
46116;SDS011;32591;48.102;11.772;2023-06-22T07:27:18;12.75;;;6.18;;
46116;SDS011;32591;48.102;11.772;2023-06-22T07:29:46;12.50;;;6.93;;
46116;SDS011;32591;48.102;11.772;2023-06-22T07:32:13;11.50;;;6.80;;
46116;SDS011;32591;48.102;11.772;2023-06-22T07:34:40;11.45;;;7.07;;
46116;SDS011;32591;48.102;11.772;2023-06-22T07:37:08;11.77;;;6.82;;
46116;SDS011;32591;48.102;11.772;2023-06-22T07:39:35;11.02;;;6.22;;
46116;SDS011;32591;48.102;11.772;2023-06-22T07:42:03;10.57;;;6.55;;
46116;SDS011;32591;48.102;11.772;2023-06-22T07:44:32;10.13;;;6.53;;
46116;SDS011;32591;48.102;11.772;2023-06-22T07:46:59;14.90;;;7.43;;
46116;SDS011;32591;48.102;11.772;2023-06-22T07:49:27;10.80;;;6.47;;
46116;SDS011;32591;48.102;11.772;2023-06-22T07:51:54;11.05;;;6.30;;
46116;SDS011;32591;48.102;11.772;2023-06-22T07:54:21;13.40;;;6.30;;
46116;SDS011;32591;48.102;11.772;2023-06-22T07:56:48;13.32;;;6.78;;
46116;SDS011;32591;48.102;11.772;2023-06-22T07:59:15;13.77;;;6.53;;
46116;SDS011;32591;48.102;11.772;2023-06-22T08:01:43;13.55;;;6.88;;
46116;SDS011;32591;48.102;11.772;2023-06-22T08:04:10;13.80;;;6.18;;
46116;SDS011;32591;48.102;11.772;2023-06-22T08:06:37;16.63;;;6.38;;
46116;SDS011;32591;48.102;11.772;2023-06-22T08:09:04;11.85;;;6.70;;
46116;SDS011;32591;48.102;11.772;2023-06-22T08:11:31;13.57;;;6.47;;
46116;SDS011;32591;48.102;11.772;2023-06-22T08:13:59;13.50;;;6.45;;
46116;SDS011;32591;48.102;11.772;2023-06-22T08:16:26;11.85;;;6.28;;
46116;SDS011;32591;48.102;11.772;2023-06-22T08:18:54;15.65;;;6.60;;
46116;SDS011;32591;48.102;11.772;2023-06-22T08:21:21;10.95;;;5.95;;
46116;SDS011;32591;48.102;11.772;2023-06-22T08:23:48;17.05;;;6.25;;
46116;SDS011;32591;48.102;11.772;2023-06-22T08:26:15;13.02;;;6.22;;
46116;SDS011;32591;48.102;11.772;2023-06-22T08:28:42;12.52;;;6.60;;
46116;SDS011;32591;48.102;11.772;2023-06-22T08:31:09;10.43;;;6.32;;
46116;SDS011;32591;48.102;11.772;2023-06-22T08:33:37;10.85;;;5.57;;
46116;SDS011;32591;48.102;11.772;2023-06-22T08:36:06;10.23;;;5.80;;
46116;SDS011;32591;48.102;11.772;2023-06-22T08:38:33;11.75;;;5.95;;
46116;SDS011;32591;48.102;11.772;2023-06-22T08:41:00;12.82;;;6.35;;
46116;SDS011;32591;48.102;11.772;2023-06-22T08:43:27;11.70;;;6.63;;
46116;SDS011;32591;48.102;11.772;2023-06-22T08:45:54;10.48;;;5.88;;
46116;SDS011;32591;48.102;11.772;2023-06-22T08:48:21;13.18;;;6.30;;
46116;SDS011;32591;48.102;11.772;2023-06-22T08:50:48;12.93;;;6.15;;
46116;SDS011;32591;48.102;11.772;2023-06-22T08:53:16;10.38;;;6.38;;
46116;SDS011;32591;48.102;11.772;2023-06-22T08:55:43;11.75;;;6.20;;
46116;SDS011;32591;48.102;11.772;2023-06-22T08:58:10;11.98;;;5.68;;
46116;SDS011;32591;48.102;11.772;2023-06-22T09:00:37;9.95;;;6.15;;
46116;SDS011;32591;48.102;11.772;2023-06-22T09:03:04;13.57;;;6.57;;
46116;SDS011;32591;48.102;11.772;2023-06-22T09:05:31;10.43;;;6.13;;
46116;SDS011;32591;48.102;11.772;2023-06-22T09:07:58;13.75;;;6.65;;
46116;SDS011;32591;48.102;11.772;2023-06-22T09:10:26;14.02;;;7.00;;
46116;SDS011;32591;48.102;11.772;2023-06-22T09:12:53;12.90;;;6.47;;
46116;SDS011;32591;48.102;11.772;2023-06-22T09:15:20;12.38;;;5.95;;
46116;SDS011;32591;48.102;11.772;2023-06-22T09:17:47;13.18;;;6.45;;
46116;SDS011;32591;48.102;11.772;2023-06-22T09:20:14;11.00;;;6.20;;
46116;SDS011;32591;48.102;11.772;2023-06-22T09:22:41;12.15;;;6.43;;
46116;SDS011;32591;48.102;11.772;2023-06-22T09:25:08;13.68;;;6.10;;
46116;SDS011;32591;48.102;11.772;2023-06-22T09:27:37;11.35;;;4.97;;
46116;SDS011;32591;48.102;11.772;2023-06-22T09:30:05;12.02;;;6.20;;
46116;SDS011;32591;48.102;11.772;2023-06-22T09:32:33;12.65;;;6.45;;
46116;SDS011;32591;48.102;11.772;2023-06-22T09:35:02;13.20;;;6.05;;
46116;SDS011;32591;48.102;11.772;2023-06-22T09:37:31;11.98;;;5.72;;
46116;SDS011;32591;48.102;11.772;2023-06-22T09:39:58;13.43;;;7.38;;
46116;SDS011;32591;48.102;11.772;2023-06-22T09:42:25;10.32;;;6.20;;
46116;SDS011;32591;48.102;11.772;2023-06-22T09:44:53;12.80;;;6.22;;
46116;SDS011;32591;48.102;11.772;2023-06-22T09:47:20;16.27;;;6.78;;
46116;SDS011;32591;48.102;11.772;2023-06-22T09:49:47;14.65;;;5.90;;
46116;SDS011;32591;48.102;11.772;2023-06-22T09:52:15;11.77;;;6.35;;
46116;SDS011;32591;48.102;11.772;2023-06-22T09:54:42;12.68;;;6.47;;
46116;SDS011;32591;48.102;11.772;2023-06-22T09:57:09;12.05;;;5.70;;
46116;SDS011;32591;48.102;11.772;2023-06-22T09:59:36;13.48;;;6.15;;
46116;SDS011;32591;48.102;11.772;2023-06-22T10:02:04;14.35;;;6.55;;
46116;SDS011;32591;48.102;11.772;2023-06-22T10:04:32;10.95;;;6.93;;
46116;SDS011;32591;48.102;11.772;2023-06-22T10:07:00;10.52;;;5.82;;
46116;SDS011;32591;48.102;11.772;2023-06-22T10:09:27;11.73;;;5.93;;
46116;SDS011;32591;48.102;11.772;2023-06-22T10:11:54;10.07;;;5.90;;
46116;SDS011;32591;48.102;11.772;2023-06-22T10:14:21;10.98;;;6.40;;
46116;SDS011;32591;48.102;11.772;2023-06-22T10:16:49;11.63;;;6.22;;
46116;SDS011;32591;48.102;11.772;2023-06-22T10:19:19;16.35;;;6.50;;
46116;SDS011;32591;48.102;11.772;2023-06-22T10:21:46;13.45;;;6.25;;
46116;SDS011;32591;48.102;11.772;2023-06-22T10:24:13;13.57;;;5.97;;
46116;SDS011;32591;48.102;11.772;2023-06-22T10:26:40;10.95;;;5.85;;
46116;SDS011;32591;48.102;11.772;2023-06-22T10:29:07;14.43;;;6.82;;
46116;SDS011;32591;48.102;11.772;2023-06-22T10:31:34;11.35;;;6.10;;
46116;SDS011;32591;48.102;11.772;2023-06-22T10:34:01;9.90;;;6.72;;
46116;SDS011;32591;48.102;11.772;2023-06-22T10:36:29;12.80;;;6.10;;
46116;SDS011;32591;48.102;11.772;2023-06-22T10:38:56;11.32;;;5.78;;
46116;SDS011;32591;48.102;11.772;2023-06-22T10:41:24;14.40;;;6.40;;
46116;SDS011;32591;48.102;11.772;2023-06-22T10:43:54;10.63;;;5.95;;
46116;SDS011;32591;48.102;11.772;2023-06-22T10:46:21;10.73;;;5.57;;
46116;SDS011;32591;48.102;11.772;2023-06-22T10:48:50;8.93;;;5.78;;
46116;SDS011;32591;48.102;11.772;2023-06-22T10:51:19;10.82;;;6.80;;
46116;SDS011;32591;48.102;11.772;2023-06-22T10:53:47;12.52;;;6.80;;
46116;SDS011;32591;48.102;11.772;2023-06-22T10:56:16;10.60;;;6.65;;
46116;SDS011;32591;48.102;11.772;2023-06-22T10:58:44;14.23;;;6.47;;
46116;SDS011;32591;48.102;11.772;2023-06-22T11:01:11;13.07;;;6.35;;
46116;SDS011;32591;48.102;11.772;2023-06-22T11:03:39;13.38;;;6.57;;
46116;SDS011;32591;48.102;11.772;2023-06-22T11:06:05;14.55;;;7.20;;
46116;SDS011;32591;48.102;11.772;2023-06-22T11:08:32;15.50;;;7.78;;
46116;SDS011;32591;48.102;11.772;2023-06-22T11:11:01;13.20;;;5.95;;
46116;SDS011;32591;48.102;11.772;2023-06-22T11:13:28;16.90;;;6.90;;
46116;SDS011;32591;48.102;11.772;2023-06-22T11:15:54;13.55;;;6.90;;
46116;SDS011;32591;48.102;11.772;2023-06-22T11:18:21;11.75;;;6.43;;
46116;SDS011;32591;48.102;11.772;2023-06-22T11:20:48;14.55;;;6.28;;
46116;SDS011;32591;48.102;11.772;2023-06-22T11:23:15;11.40;;;6.30;;
46116;SDS011;32591;48.102;11.772;2023-06-22T11:25:42;14.07;;;6.95;;
46116;SDS011;32591;48.102;11.772;2023-06-22T11:28:10;15.23;;;7.28;;
46116;SDS011;32591;48.102;11.772;2023-06-22T11:30:37;10.55;;;6.10;;
46116;SDS011;32591;48.102;11.772;2023-06-22T11:33:04;10.65;;;6.20;;
46116;SDS011;32591;48.102;11.772;2023-06-22T11:35:31;14.18;;;6.63;;
46116;SDS011;32591;48.102;11.772;2023-06-22T11:37:58;12.98;;;6.13;;
46116;SDS011;32591;48.102;11.772;2023-06-22T11:40:25;15.85;;;6.75;;
46116;SDS011;32591;48.102;11.772;2023-06-22T11:42:52;16.00;;;7.20;;
46116;SDS011;32591;48.102;11.772;2023-06-22T11:45:20;12.40;;;6.72;;
46116;SDS011;32591;48.102;11.772;2023-06-22T11:47:47;13.07;;;6.82;;
46116;SDS011;32591;48.102;11.772;2023-06-22T11:50:14;14.55;;;6.85;;
46116;SDS011;32591;48.102;11.772;2023-06-22T11:52:41;12.13;;;6.50;;
46116;SDS011;32591;48.102;11.772;2023-06-22T11:55:08;10.90;;;6.10;;
46116;SDS011;32591;48.102;11.772;2023-06-22T11:57:36;13.40;;;6.68;;
46116;SDS011;32591;48.102;11.772;2023-06-22T12:00:04;13.60;;;7.22;;
46116;SDS011;32591;48.102;11.772;2023-06-22T12:02:42;16.98;;;7.93;;
46116;SDS011;32591;48.102;11.772;2023-06-22T12:05:10;8.70;;;5.53;;
46116;SDS011;32591;48.102;11.772;2023-06-22T12:07:37;11.85;;;6.28;;
46116;SDS011;32591;48.102;11.772;2023-06-22T12:10:05;13.38;;;6.95;;
46116;SDS011;32591;48.102;11.772;2023-06-22T12:12:33;12.50;;;6.30;;
46116;SDS011;32591;48.102;11.772;2023-06-22T12:15:00;18.58;;;6.78;;
46116;SDS011;32591;48.102;11.772;2023-06-22T12:17:28;14.13;;;5.65;;
46116;SDS011;32591;48.102;11.772;2023-06-22T12:19:58;9.50;;;6.25;;
46116;SDS011;32591;48.102;11.772;2023-06-22T12:22:25;14.85;;;6.50;;
46116;SDS011;32591;48.102;11.772;2023-06-22T12:24:52;19.73;;;6.55;;
46116;SDS011;32591;48.102;11.772;2023-06-22T12:27:19;10.00;;;6.10;;
46116;SDS011;32591;48.102;11.772;2023-06-22T12:29:46;15.52;;;6.85;;
46116;SDS011;32591;48.102;11.772;2023-06-22T12:32:13;16.83;;;6.78;;
46116;SDS011;32591;48.102;11.772;2023-06-22T12:34:41;8.95;;;5.72;;
46116;SDS011;32591;48.102;11.772;2023-06-22T12:37:10;13.73;;;6.15;;
46116;SDS011;32591;48.102;11.772;2023-06-22T12:39:39;14.63;;;6.90;;
46116;SDS011;32591;48.102;11.772;2023-06-22T12:42:06;14.20;;;6.53;;
46116;SDS011;32591;48.102;11.772;2023-06-22T12:44:34;12.63;;;6.78;;
46116;SDS011;32591;48.102;11.772;2023-06-22T12:47:01;15.15;;;6.35;;
46116;SDS011;32591;48.102;11.772;2023-06-22T12:49:28;15.00;;;7.38;;
46116;SDS011;32591;48.102;11.772;2023-06-22T12:51:55;11.30;;;5.85;;
46116;SDS011;32591;48.102;11.772;2023-06-22T12:54:23;15.93;;;6.90;;
46116;SDS011;32591;48.102;11.772;2023-06-22T12:56:50;14.60;;;6.43;;
46116;SDS011;32591;48.102;11.772;2023-06-22T12:59:17;17.00;;;6.53;;
46116;SDS011;32591;48.102;11.772;2023-06-22T13:01:44;12.00;;;6.43;;
46116;SDS011;32591;48.102;11.772;2023-06-22T13:04:11;15.10;;;7.30;;
46116;SDS011;32591;48.102;11.772;2023-06-22T13:06:39;11.98;;;6.30;;
46116;SDS011;32591;48.102;11.772;2023-06-22T13:09:06;13.75;;;6.45;;
46116;SDS011;32591;48.102;11.772;2023-06-22T13:11:37;11.82;;;6.50;;
46116;SDS011;32591;48.102;11.772;2023-06-22T13:14:04;15.02;;;7.30;;
46116;SDS011;32591;48.102;11.772;2023-06-22T13:16:31;11.88;;;6.45;;
46116;SDS011;32591;48.102;11.772;2023-06-22T13:18:58;12.90;;;6.25;;
46116;SDS011;32591;48.102;11.772;2023-06-22T13:21:25;12.95;;;5.75;;
46116;SDS011;32591;48.102;11.772;2023-06-22T13:23:52;11.18;;;6.20;;
46116;SDS011;32591;48.102;11.772;2023-06-22T13:26:20;12.40;;;7.10;;
46116;SDS011;32591;48.102;11.772;2023-06-22T13:28:48;14.50;;;7.05;;
46116;SDS011;32591;48.102;11.772;2023-06-22T13:31:15;14.07;;;7.50;;
46116;SDS011;32591;48.102;11.772;2023-06-22T13:33:42;11.20;;;6.25;;
46116;SDS011;32591;48.102;11.772;2023-06-22T13:36:12;15.48;;;6.20;;
46116;SDS011;32591;48.102;11.772;2023-06-22T13:38:39;12.15;;;5.97;;
46116;SDS011;32591;48.102;11.772;2023-06-22T13:41:06;14.02;;;6.65;;
46116;SDS011;32591;48.102;11.772;2023-06-22T13:43:33;12.77;;;6.25;;
46116;SDS011;32591;48.102;11.772;2023-06-22T13:46:01;12.65;;;6.20;;
46116;SDS011;32591;48.102;11.772;2023-06-22T13:48:28;14.43;;;6.55;;
46116;SDS011;32591;48.102;11.772;2023-06-22T13:50:55;17.13;;;6.20;;
46116;SDS011;32591;48.102;11.772;2023-06-22T13:53:24;14.73;;;6.40;;
46116;SDS011;32591;48.102;11.772;2023-06-22T13:55:51;13.05;;;6.20;;
46116;SDS011;32591;48.102;11.772;2023-06-22T13:58:18;9.48;;;5.32;;
46116;SDS011;32591;48.102;11.772;2023-06-22T14:00:46;13.82;;;6.93;;
46116;SDS011;32591;48.102;11.772;2023-06-22T14:03:14;14.07;;;6.32;;
46116;SDS011;32591;48.102;11.772;2023-06-22T14:05:41;12.35;;;6.28;;
46116;SDS011;32591;48.102;11.772;2023-06-22T14:08:09;13.00;;;6.05;;
46116;SDS011;32591;48.102;11.772;2023-06-22T14:10:35;13.45;;;6.20;;
46116;SDS011;32591;48.102;11.772;2023-06-22T14:13:02;10.23;;;6.18;;
46116;SDS011;32591;48.102;11.772;2023-06-22T14:15:31;10.68;;;6.28;;
46116;SDS011;32591;48.102;11.772;2023-06-22T14:17:58;12.55;;;6.68;;
46116;SDS011;32591;48.102;11.772;2023-06-22T14:20:26;13.85;;;6.53;;
46116;SDS011;32591;48.102;11.772;2023-06-22T14:22:53;11.10;;;5.55;;
46116;SDS011;32591;48.102;11.772;2023-06-22T14:25:20;14.90;;;5.60;;
46116;SDS011;32591;48.102;11.772;2023-06-22T14:27:47;12.30;;;5.88;;
46116;SDS011;32591;48.102;11.772;2023-06-22T14:30:14;11.95;;;6.90;;